createdAt,value
2022-07-27T00:01:04.278Z,3.60
2022-07-27T00:03:05.863Z,2.97
2022-07-27T00:05:08.267Z,3.47
2022-07-27T00:07:09.928Z,3.10
2022-07-27T00:09:11.894Z,3.50
2022-07-27T00:11:14.325Z,3.30
2022-07-27T00:13:16.637Z,3.47
2022-07-27T00:15:18.181Z,3.30
2022-07-27T00:17:21.118Z,3.40
2022-07-27T00:19:22.688Z,3.30
2022-07-27T00:21:24.256Z,2.90
2022-07-27T00:23:25.912Z,2.80
2022-07-27T00:25:27.999Z,4.00
2022-07-27T00:27:29.504Z,3.57
2022-07-27T00:29:31.062Z,3.13
2022-07-27T00:31:32.762Z,2.87
2022-07-27T00:33:35.972Z,3.30
2022-07-27T00:35:37.607Z,3.40
2022-07-27T00:37:39.609Z,3.47
2022-07-27T00:39:41.190Z,3.20
2022-07-27T00:41:42.899Z,3.27
2022-07-27T00:43:52.380Z,3.40
2022-07-27T00:45:53.937Z,3.53
2022-07-27T00:47:55.515Z,3.40
2022-07-27T00:49:59.477Z,3.50
2022-07-27T00:52:01.085Z,3.47
2022-07-27T00:54:02.766Z,3.67
2022-07-27T00:56:04.842Z,3.70
2022-07-27T00:58:07.695Z,3.93
2022-07-27T01:00:10.129Z,3.03
2022-07-27T01:02:12.308Z,3.13
2022-07-27T01:04:16.697Z,3.30
2022-07-27T01:06:19.744Z,3.77
2022-07-27T01:08:29.017Z,3.60
2022-07-27T01:10:30.725Z,3.23
2022-07-27T01:12:32.742Z,3.97
2022-07-27T01:14:34.930Z,8.40
2022-07-27T01:16:36.656Z,6.37
2022-07-27T01:18:39.985Z,6.80
2022-07-27T01:20:41.873Z,4.23
2022-07-27T01:22:44.755Z,5.17
2022-07-27T01:24:46.306Z,4.83
2022-07-27T01:26:48.435Z,5.43
2022-07-27T01:28:50.032Z,5.47
2022-07-27T01:30:51.670Z,4.80
2022-07-27T01:33:00.049Z,4.40
2022-07-27T01:35:01.656Z,3.93
2022-07-27T01:37:04.642Z,4.13
2022-07-27T01:39:07.643Z,3.90
2022-07-27T01:41:11.263Z,3.43
2022-07-27T01:43:12.869Z,3.37
2022-07-27T01:45:14.503Z,3.40
2022-07-27T01:47:16.108Z,3.33
2022-07-27T01:49:17.963Z,3.57
2022-07-27T01:51:19.621Z,3.60
2022-07-27T01:53:22.257Z,3.40
2022-07-27T01:55:25.199Z,3.60
2022-07-27T01:57:26.880Z,3.40
2022-07-27T01:59:28.433Z,3.30
2022-07-27T02:01:30.143Z,3.30
2022-07-27T02:03:31.933Z,3.17
2022-07-27T02:05:34.349Z,3.50
2022-07-27T02:07:35.978Z,3.43
2022-07-27T02:09:37.593Z,3.57
2022-07-27T02:11:40.680Z,3.10
2022-07-27T02:13:43.535Z,3.57
2022-07-27T02:15:45.187Z,3.07
2022-07-27T02:17:47.897Z,3.50
2022-07-27T02:19:49.485Z,2.83
2022-07-27T02:21:51.070Z,3.00
2022-07-27T02:23:52.626Z,2.90
2022-07-27T02:25:54.271Z,3.23
2022-07-27T02:27:57.255Z,2.57
2022-07-27T02:29:59.982Z,2.70
2022-07-27T02:32:01.672Z,2.70
2022-07-27T02:34:03.584Z,3.40
2022-07-27T02:36:05.580Z,2.73
2022-07-27T02:38:07.119Z,2.57
2022-07-27T02:40:09.993Z,2.63
2022-07-27T02:42:11.555Z,2.43
2022-07-27T02:44:16.551Z,2.50
2022-07-27T02:46:18.189Z,2.53
2022-07-27T02:48:19.928Z,2.27
2022-07-27T02:50:21.526Z,2.23
2022-07-27T02:52:23.094Z,2.40
2022-07-27T02:54:25.580Z,2.13
2022-07-27T02:56:27.415Z,2.30
2022-07-27T02:58:29.041Z,2.17
2022-07-27T03:00:32.050Z,2.67
2022-07-27T03:02:33.676Z,1.87
2022-07-27T03:04:35.448Z,2.23
2022-07-27T03:06:37.034Z,2.07
2022-07-27T03:08:38.727Z,1.90
2022-07-27T03:10:40.329Z,2.40
2022-07-27T03:12:44.018Z,2.00
2022-07-27T03:14:45.572Z,2.27
2022-07-27T03:16:48.554Z,2.40
2022-07-27T03:18:50.102Z,1.90
2022-07-27T03:20:51.630Z,1.87
2022-07-27T03:22:53.272Z,2.17
2022-07-27T03:24:54.846Z,2.00
2022-07-27T03:26:56.385Z,1.97
2022-07-27T03:28:57.951Z,2.03
2022-07-27T03:30:59.825Z,2.00
2022-07-27T03:33:02.864Z,1.80
2022-07-27T03:35:05.241Z,1.87
2022-07-27T03:37:06.797Z,1.63
2022-07-27T03:39:08.720Z,1.70
2022-07-27T03:41:10.880Z,1.60
2022-07-27T03:43:12.443Z,1.60
2022-07-27T03:45:14.220Z,1.87
2022-07-27T03:47:15.789Z,1.90
2022-07-27T03:49:18.866Z,1.70
2022-07-27T03:51:20.607Z,1.87
2022-07-27T03:53:22.304Z,1.80
2022-07-27T03:55:23.867Z,1.83
2022-07-27T03:57:25.575Z,2.13
2022-07-27T03:59:27.594Z,1.67
2022-07-27T04:01:29.393Z,2.07
2022-07-27T04:03:33.791Z,1.27
2022-07-27T04:05:36.804Z,2.10
2022-07-27T04:07:38.796Z,1.40
2022-07-27T04:09:40.325Z,1.53
2022-07-27T04:11:50.860Z,1.80
2022-07-27T04:13:53.153Z,1.57
2022-07-27T04:15:54.727Z,1.47
2022-07-27T04:17:57.658Z,1.47
2022-07-27T04:19:59.296Z,1.53
2022-07-27T04:22:02.183Z,1.40
2022-07-27T04:24:04.364Z,1.80
2022-07-27T04:26:05.923Z,1.53
2022-07-27T04:28:07.542Z,1.60
2022-07-27T04:30:10.074Z,1.40
2022-07-27T04:32:11.669Z,1.50
2022-07-27T04:34:13.396Z,1.47
2022-07-27T04:36:15.027Z,1.83
2022-07-27T04:38:17.983Z,1.93
2022-07-27T04:40:19.615Z,1.40
2022-07-27T04:42:21.210Z,1.43
2022-07-27T04:44:22.785Z,1.37
2022-07-27T04:46:24.495Z,1.23
2022-07-27T04:48:26.054Z,1.20
2022-07-27T04:50:27.713Z,1.40
2022-07-27T04:52:29.269Z,1.40
2022-07-27T04:54:32.214Z,1.40
2022-07-27T04:56:33.812Z,1.53
2022-07-27T04:58:36.157Z,1.97
2022-07-27T05:00:37.942Z,1.33
2022-07-27T05:02:40.011Z,1.67
2022-07-27T05:04:41.574Z,1.50
2022-07-27T05:06:43.214Z,1.93
2022-07-27T05:08:44.803Z,1.70
2022-07-27T05:10:47.821Z,3.00
2022-07-27T05:12:49.777Z,1.50
2022-07-27T05:14:51.366Z,1.30
2022-07-27T05:16:52.986Z,1.30
2022-07-27T05:18:54.562Z,1.20
2022-07-27T05:20:56.133Z,1.70
2022-07-27T05:22:57.721Z,1.27
2022-07-27T05:24:59.345Z,1.20
2022-07-27T05:27:02.341Z,1.23
2022-07-27T05:29:04.067Z,2.20
2022-07-27T05:31:05.652Z,1.70
2022-07-27T05:33:07.257Z,1.97
2022-07-27T05:35:09.865Z,2.10
2022-07-27T05:37:13.813Z,1.60
2022-07-27T05:39:15.893Z,1.70
2022-07-27T05:41:22.512Z,1.60
2022-07-27T05:43:25.422Z,1.20
2022-07-27T05:45:27.314Z,1.40
2022-07-27T05:47:28.998Z,1.50
2022-07-27T05:49:30.611Z,1.43
2022-07-27T05:51:32.255Z,1.90
2022-07-27T05:53:34.746Z,2.20
2022-07-27T05:55:36.401Z,1.70
2022-07-27T05:57:39.507Z,1.60
2022-07-27T05:59:42.523Z,1.60
2022-07-27T06:01:44.333Z,1.20
2022-07-27T06:03:45.887Z,1.60
2022-07-27T06:05:47.501Z,1.80
2022-07-27T06:07:49.733Z,1.20
2022-07-27T06:09:51.490Z,1.20
2022-07-27T06:11:53.090Z,1.20
2022-07-27T06:13:55.131Z,1.40
2022-07-27T06:15:58.153Z,1.37
2022-07-27T06:17:59.805Z,1.20
2022-07-27T06:20:01.915Z,1.40
2022-07-27T06:22:03.541Z,1.47
2022-07-27T06:24:05.812Z,1.20
2022-07-27T06:26:07.462Z,1.20
2022-07-27T06:28:09.084Z,1.30
2022-07-27T06:30:12.080Z,1.10
2022-07-27T06:32:15.216Z,1.20
2022-07-27T06:34:16.937Z,1.50
2022-07-27T06:36:18.996Z,1.03
2022-07-27T06:38:20.777Z,1.20
2022-07-27T06:40:24.497Z,1.13
2022-07-27T06:42:29.007Z,1.17
2022-07-27T06:44:30.662Z,1.10
2022-07-27T06:46:32.275Z,1.50
2022-07-27T06:48:35.320Z,1.37
2022-07-27T06:50:37.405Z,1.10
2022-07-27T06:52:38.958Z,1.27
2022-07-27T06:54:40.539Z,1.47
2022-07-27T06:56:42.112Z,1.40
2022-07-27T06:58:43.724Z,1.70
2022-07-27T07:00:45.875Z,1.33
2022-07-27T07:02:52.712Z,0.93
2022-07-27T07:04:55.677Z,1.30
2022-07-27T07:06:57.279Z,1.70
2022-07-27T07:08:58.889Z,1.63
2022-07-27T07:11:00.491Z,1.17
2022-07-27T07:13:04.674Z,1.37
2022-07-27T07:15:07.415Z,1.20
2022-07-27T07:17:09.090Z,1.40
2022-07-27T07:19:11.084Z,1.50
2022-07-27T07:21:15.563Z,1.37
2022-07-27T07:23:17.193Z,1.30
2022-07-27T07:25:18.941Z,1.20
2022-07-27T07:27:20.580Z,1.30
2022-07-27T07:29:22.165Z,1.20
2022-07-27T07:31:23.803Z,1.47
2022-07-27T07:33:25.412Z,1.67
2022-07-27T07:35:27.127Z,1.80
2022-07-27T07:37:33.616Z,1.20
2022-07-27T07:39:35.890Z,1.30
2022-07-27T07:41:37.586Z,1.47
2022-07-27T07:43:39.453Z,1.50
2022-07-27T07:45:50.637Z,1.33
2022-07-27T07:47:54.234Z,1.10
2022-07-27T07:49:55.815Z,1.10
2022-07-27T07:51:57.508Z,1.10
2022-07-27T07:54:00.470Z,1.10
2022-07-27T07:56:02.107Z,1.20
2022-07-27T07:58:03.781Z,1.20
2022-07-27T08:00:07.247Z,1.53
2022-07-27T08:02:08.926Z,1.00
2022-07-27T08:04:10.667Z,1.63
2022-07-27T08:06:12.489Z,1.20
2022-07-27T08:08:14.104Z,1.40
2022-07-27T08:10:19.870Z,1.30
2022-07-27T08:12:21.473Z,1.80
2022-07-27T08:14:23.275Z,1.40
2022-07-27T08:16:25.056Z,1.70
2022-07-27T08:18:26.842Z,1.80
2022-07-27T08:20:28.469Z,2.00
2022-07-27T08:22:30.270Z,1.40
2022-07-27T08:24:31.866Z,1.50
2022-07-27T08:26:34.861Z,1.40
2022-07-27T08:28:37.079Z,1.60
2022-07-27T08:30:38.980Z,1.70
2022-07-27T08:32:51.915Z,1.50
2022-07-27T08:34:53.615Z,1.90
2022-07-27T08:36:55.207Z,1.70
2022-07-27T08:38:56.760Z,1.70
2022-07-27T08:41:02.090Z,1.97
2022-07-27T08:43:06.555Z,1.70
2022-07-27T08:45:10.313Z,1.70
2022-07-27T08:47:19.621Z,2.17
2022-07-27T08:49:21.253Z,1.53
2022-07-27T08:51:24.476Z,1.80
2022-07-27T08:53:41.321Z,1.80
2022-07-27T08:55:54.486Z,1.70
2022-07-27T08:58:02.222Z,1.70
2022-07-27T09:00:07.356Z,1.70
2022-07-27T09:02:11.063Z,1.60
2022-07-27T09:04:12.723Z,1.57
2022-07-27T09:06:42.345Z,1.63
2022-07-27T09:08:58.741Z,1.40
2022-07-27T09:11:00.592Z,1.80
2022-07-27T09:13:17.685Z,1.70
2022-07-27T09:15:20.821Z,1.57
2022-07-27T09:19:53.399Z,1.40
2022-07-27T09:21:55.091Z,1.87
2022-07-27T09:24:18.112Z,1.80
2022-07-27T09:26:33.805Z,1.73
2022-07-27T09:28:36.298Z,1.40
2022-07-27T09:30:43.415Z,1.30
2022-07-27T09:32:53.928Z,2.07
2022-07-27T09:34:55.554Z,1.80
2022-07-27T09:36:58.513Z,2.70
2022-07-27T09:39:02.886Z,1.90
2022-07-27T09:41:06.501Z,2.60
2022-07-27T09:43:52.054Z,2.27
2022-07-27T09:45:34.184Z,1.93
2022-07-27T09:47:37.508Z,2.17
2022-07-27T09:49:39.350Z,2.50
2022-07-27T09:51:59.383Z,1.97
2022-07-27T09:54:07.454Z,1.60
2022-07-27T09:56:10.677Z,1.80
2022-07-27T09:58:15.458Z,2.00
2022-07-27T10:00:18.451Z,2.80
2022-07-27T10:02:20.462Z,2.20
2022-07-27T10:04:24.940Z,2.20
2022-07-27T10:06:28.676Z,1.93
2022-07-27T10:08:31.553Z,2.40
2022-07-27T10:10:33.263Z,1.83
2022-07-27T10:12:35.117Z,2.10
2022-07-27T10:14:36.750Z,2.03
2022-07-27T10:16:39.495Z,2.40
2022-07-27T10:18:50.813Z,2.20
2022-07-27T10:21:05.973Z,1.73
2022-07-27T10:23:07.725Z,1.70
2022-07-27T10:25:09.578Z,2.10
2022-07-27T10:27:19.494Z,1.77
2022-07-27T10:29:22.681Z,2.30
2022-07-27T10:31:26.475Z,1.77
2022-07-27T10:33:42.610Z,2.10
2022-07-27T10:35:44.313Z,2.40
2022-07-27T10:38:06.708Z,1.77
2022-07-27T10:40:18.594Z,2.20
2022-07-27T10:42:26.256Z,2.20
2022-07-27T10:44:28.624Z,2.40
2022-07-27T10:46:30.712Z,2.10
2022-07-27T10:48:35.685Z,2.33
2022-07-27T10:50:46.838Z,2.13
2022-07-27T10:52:51.381Z,1.80
2022-07-27T10:54:58.148Z,2.47
2022-07-27T10:57:03.664Z,2.10
2022-07-27T10:59:05.285Z,2.20
2022-07-27T11:01:06.942Z,2.00
2022-07-27T11:03:08.669Z,2.43
2022-07-27T11:05:24.895Z,2.50
2022-07-27T11:07:44.466Z,2.87
2022-07-27T11:10:05.867Z,2.07
2022-07-27T11:12:09.487Z,2.50
2022-07-27T11:14:11.443Z,2.07
2022-07-27T11:16:23.770Z,2.00
2022-07-27T11:18:28.394Z,2.17
2022-07-27T11:20:31.832Z,2.00
2022-07-27T11:24:58.967Z,1.80
2022-07-27T11:27:00.656Z,2.43
2022-07-27T11:29:21.696Z,2.40
2022-07-27T11:31:45.131Z,2.10
2022-07-27T11:33:56.521Z,2.50
2022-07-27T11:36:00.984Z,2.30
2022-07-27T11:38:05.452Z,1.93
2022-07-27T11:40:37.264Z,2.10
2022-07-27T11:42:39.324Z,2.43
2022-07-27T11:44:41.860Z,2.27
2022-07-27T11:46:45.434Z,2.10
2022-07-27T11:49:06.792Z,2.50
2022-07-27T11:51:09.466Z,2.20
2022-07-27T11:53:11.387Z,2.23
2022-07-27T11:55:14.322Z,1.90
2022-07-27T11:57:16.115Z,1.97
2022-07-27T11:59:19.117Z,2.13
2022-07-27T12:01:26.959Z,1.90
2022-07-27T12:03:32.197Z,2.30
2022-07-27T12:05:49.479Z,1.70
2022-07-27T12:07:51.478Z,2.50
2022-07-27T12:09:55.243Z,1.77
2022-07-27T12:12:01.331Z,2.00
2022-07-27T12:14:11.933Z,2.50
2022-07-27T12:16:18.640Z,2.20
2022-07-27T12:18:20.457Z,1.70
2022-07-27T12:20:32.502Z,2.00
2022-07-27T12:22:37.144Z,2.10
2022-07-27T12:24:40.630Z,2.60
2022-07-27T12:26:42.202Z,2.40
2022-07-27T12:28:45.312Z,2.30
2022-07-27T12:30:49.529Z,2.30
2022-07-27T12:32:55.395Z,2.00
2022-07-27T12:34:57.364Z,2.40
2022-07-27T12:36:59.073Z,2.10
2022-07-27T12:39:00.772Z,2.70
2022-07-27T12:41:02.451Z,2.13
2022-07-27T12:43:05.886Z,2.23
2022-07-27T12:45:14.619Z,1.90
2022-07-27T12:47:17.325Z,2.00
2022-07-27T12:49:23.518Z,2.13
2022-07-27T12:51:25.274Z,1.97
2022-07-27T12:53:26.984Z,2.43
2022-07-27T12:55:28.691Z,2.10
2022-07-27T12:57:54.062Z,2.00
2022-07-27T12:59:52.225Z,2.60
2022-07-27T13:01:55.408Z,2.07
2022-07-27T13:03:57.087Z,2.43
2022-07-27T13:05:58.687Z,2.80
2022-07-27T13:08:01.081Z,2.07
2022-07-27T13:10:05.010Z,2.00
2022-07-27T13:12:06.991Z,2.20
2022-07-27T13:14:08.719Z,2.27
2022-07-27T13:16:10.467Z,2.80
2022-07-27T13:18:13.539Z,3.57
2022-07-27T13:20:16.970Z,2.60
2022-07-27T13:22:18.612Z,2.13
2022-07-27T13:24:20.480Z,1.67
2022-07-27T13:26:22.985Z,2.33
2022-07-27T13:28:29.244Z,2.17
2022-07-27T13:30:31.125Z,2.40
2022-07-27T13:32:32.907Z,2.63
2022-07-27T13:34:35.991Z,2.17
2022-07-27T13:36:37.947Z,2.07
2022-07-27T13:38:39.588Z,2.00
2022-07-27T13:40:43.079Z,1.80
2022-07-27T13:42:44.721Z,2.07
2022-07-27T13:47:10.219Z,1.93
2022-07-27T13:49:12.174Z,2.30
2022-07-27T13:51:15.447Z,2.27
2022-07-27T13:53:17.234Z,2.00
2022-07-27T13:55:18.911Z,1.97
2022-07-27T13:57:23.307Z,2.13
2022-07-27T13:59:25.003Z,1.97
2022-07-27T14:01:27.137Z,1.80
2022-07-27T14:03:28.835Z,2.40
2022-07-27T14:05:31.998Z,2.13
2022-07-27T14:07:35.746Z,2.20
2022-07-27T14:09:37.559Z,2.10
2022-07-27T14:11:39.786Z,2.60
2022-07-27T14:13:54.467Z,2.33
2022-07-27T14:15:56.358Z,2.40
2022-07-27T14:17:58.183Z,2.20
2022-07-27T14:19:59.790Z,2.07
2022-07-27T14:22:01.434Z,2.50
2022-07-27T14:24:05.131Z,1.87
2022-07-27T14:26:08.508Z,2.10
2022-07-27T14:28:10.170Z,2.30
2022-07-27T14:30:14.241Z,2.10
2022-07-27T14:32:19.028Z,2.57
2022-07-27T14:34:20.699Z,1.97
2022-07-27T14:36:22.425Z,1.83
2022-07-27T14:38:30.199Z,2.03
2022-07-27T14:40:34.069Z,2.07
2022-07-27T14:42:36.311Z,2.07
2022-07-27T14:44:37.912Z,2.10
2022-07-27T14:46:39.662Z,2.37
2022-07-27T14:51:03.078Z,2.20
2022-07-27T14:53:04.789Z,2.27
2022-07-27T14:55:07.769Z,2.13
2022-07-27T14:57:11.018Z,2.30
2022-07-27T14:59:12.849Z,1.80
2022-07-27T15:01:16.982Z,2.43
2022-07-27T15:03:18.998Z,2.10
2022-07-27T15:05:20.705Z,2.13
2022-07-27T15:07:25.852Z,2.53
2022-07-27T15:09:27.503Z,2.60
2022-07-27T15:11:29.141Z,2.13
2022-07-27T15:13:32.279Z,2.40
2022-07-27T15:15:34.028Z,2.10
2022-07-27T15:17:37.586Z,2.40
2022-07-27T15:19:39.718Z,2.30
2022-07-27T15:21:43.559Z,2.00
2022-07-27T15:23:45.289Z,2.90
2022-07-27T15:25:47.232Z,1.83
2022-07-27T15:27:49.537Z,2.20
2022-07-27T15:29:52.556Z,2.30
2022-07-27T15:31:54.476Z,2.10
2022-07-27T15:33:58.094Z,2.40
2022-07-27T15:35:59.872Z,2.10
2022-07-27T15:38:02.114Z,2.00
2022-07-27T15:40:08.249Z,2.33
2022-07-27T15:42:09.928Z,2.33
2022-07-27T15:44:11.560Z,2.30
2022-07-27T15:46:15.163Z,2.30
2022-07-27T15:48:19.830Z,2.03
2022-07-27T15:50:21.642Z,2.10
2022-07-27T15:52:23.211Z,1.90
2022-07-27T15:54:24.898Z,2.20
2022-07-27T15:56:26.503Z,2.10
2022-07-27T15:58:28.168Z,2.00
2022-07-27T16:00:31.433Z,2.30
2022-07-27T16:02:36.286Z,2.00
2022-07-27T16:04:38.215Z,2.23
2022-07-27T16:06:40.150Z,2.40
2022-07-27T16:08:41.822Z,1.90
2022-07-27T16:10:44.462Z,2.43
2022-07-27T16:12:46.131Z,2.00
2022-07-27T16:14:49.988Z,2.23
2022-07-27T16:16:51.690Z,2.13
2022-07-27T16:18:55.632Z,2.10
2022-07-27T16:20:57.214Z,1.90
2022-07-27T16:22:58.811Z,2.20
2022-07-27T16:25:00.513Z,2.23
2022-07-27T16:27:02.406Z,2.13
2022-07-27T16:29:04.092Z,2.10
2022-07-27T16:31:06.977Z,2.13
2022-07-27T16:33:08.853Z,2.07
2022-07-27T16:35:11.952Z,1.80
2022-07-27T16:37:13.625Z,2.40
2022-07-27T16:39:15.811Z,2.37
2022-07-27T16:41:25.878Z,2.07
2022-07-27T16:43:38.652Z,1.90
2022-07-27T16:45:40.606Z,2.10
2022-07-27T16:47:42.515Z,1.90
2022-07-27T16:49:44.251Z,2.17
2022-07-27T16:51:47.334Z,2.20
2022-07-27T16:53:48.945Z,1.70
2022-07-27T16:55:51.048Z,1.80
2022-07-27T16:57:52.962Z,1.97
2022-07-27T16:59:54.589Z,1.80
2022-07-27T17:01:56.239Z,1.90
2022-07-27T17:03:58.303Z,2.13
2022-07-27T17:06:05.200Z,2.13
2022-07-27T17:08:09.416Z,1.70
2022-07-27T17:10:11.011Z,2.00
2022-07-27T17:12:15.647Z,1.70
2022-07-27T17:14:19.393Z,2.40
2022-07-27T17:16:22.824Z,1.97
2022-07-27T17:18:24.634Z,2.10
2022-07-27T17:20:35.293Z,2.03
2022-07-27T17:22:37.608Z,2.03
2022-07-27T17:24:41.155Z,1.67
2022-07-27T17:26:42.807Z,1.70
2022-07-27T17:28:44.437Z,2.17
2022-07-27T17:30:47.104Z,1.60
2022-07-27T17:32:48.792Z,1.83
2022-07-27T17:34:50.347Z,2.10
2022-07-27T17:36:51.958Z,2.03
2022-07-27T17:38:54.176Z,1.87
2022-07-27T17:40:57.181Z,1.80
2022-07-27T17:42:58.908Z,1.90
2022-07-27T17:45:00.500Z,1.80
2022-07-27T17:47:02.175Z,2.20
2022-07-27T17:49:04.178Z,1.87
2022-07-27T17:51:07.546Z,1.83
2022-07-27T17:53:09.168Z,2.07
2022-07-27T17:55:12.698Z,1.67
2022-07-27T17:57:15.757Z,1.83
2022-07-27T17:59:36.970Z,2.70
2022-07-27T18:01:47.327Z,2.00
2022-07-27T18:03:50.066Z,2.10
2022-07-27T18:05:52.195Z,2.00
2022-07-27T18:07:53.953Z,1.83
2022-07-27T18:09:55.644Z,2.00
2022-07-27T18:11:57.317Z,1.97
2022-07-27T18:14:00.385Z,1.73
2022-07-27T18:16:02.171Z,1.90
2022-07-27T18:18:03.961Z,1.80
2022-07-27T18:20:08.104Z,2.60
2022-07-27T18:22:12.806Z,1.60
2022-07-27T18:24:14.560Z,2.00
2022-07-27T18:26:16.193Z,1.80
2022-07-27T18:28:18.281Z,1.73
2022-07-27T18:30:21.316Z,1.83
2022-07-27T18:32:23.301Z,1.97
2022-07-27T18:34:24.896Z,2.00
2022-07-27T18:36:26.535Z,2.00
2022-07-27T18:38:28.208Z,2.10
2022-07-27T18:40:30.347Z,1.70
2022-07-27T18:42:32.057Z,1.70
2022-07-27T18:44:38.571Z,1.80
2022-07-27T18:46:45.275Z,1.70
2022-07-27T18:48:47.981Z,1.63
2022-07-27T18:50:50.098Z,1.60
2022-07-27T18:52:51.759Z,1.53
2022-07-27T18:54:53.554Z,1.93
2022-07-27T18:56:55.148Z,1.80
2022-07-27T18:58:56.854Z,2.30
2022-07-27T19:00:59.112Z,1.87
2022-07-27T19:03:02.571Z,1.77
2022-07-27T19:05:05.183Z,1.73
2022-07-27T19:07:08.011Z,1.70
2022-07-27T19:09:10.033Z,1.50
2022-07-27T19:11:11.913Z,1.43
2022-07-27T19:13:13.972Z,1.70
2022-07-27T19:15:15.879Z,2.63
2022-07-27T19:17:17.605Z,2.60
2022-07-27T19:19:23.048Z,2.77
2022-07-27T19:21:25.239Z,1.60
2022-07-27T19:23:27.030Z,2.00
2022-07-27T19:25:28.893Z,2.37
2022-07-27T19:27:30.677Z,2.10
2022-07-27T19:29:39.917Z,1.90
2022-07-27T19:31:41.696Z,2.10
2022-07-27T19:33:43.375Z,1.90
2022-07-27T19:35:46.477Z,1.87
2022-07-27T19:37:48.057Z,1.57
2022-07-27T19:40:02.579Z,1.93
2022-07-27T19:42:11.403Z,2.20
2022-07-27T19:44:13.043Z,1.63
2022-07-27T19:46:14.868Z,1.90
2022-07-27T19:48:16.572Z,1.80
2022-07-27T19:50:18.348Z,2.57
2022-07-27T19:52:21.381Z,1.90
2022-07-27T19:54:23.027Z,2.10
2022-07-27T19:56:24.782Z,2.00
2022-07-27T19:58:26.782Z,2.00
2022-07-27T20:00:28.698Z,2.63
2022-07-27T20:02:30.389Z,2.13
2022-07-27T20:04:32.076Z,2.53
2022-07-27T20:06:33.672Z,2.80
2022-07-27T20:08:37.041Z,2.57
2022-07-27T20:10:40.389Z,2.17
2022-07-27T20:12:42.108Z,2.33
2022-07-27T20:14:43.753Z,1.80
2022-07-27T20:16:45.847Z,1.93
2022-07-27T20:18:47.904Z,2.80
2022-07-27T20:20:49.580Z,1.70
2022-07-27T20:22:51.635Z,1.87
2022-07-27T20:24:54.616Z,1.90
2022-07-27T20:26:57.261Z,2.23
2022-07-27T20:28:59.040Z,2.40
2022-07-27T20:31:00.777Z,1.90
2022-07-27T20:33:02.393Z,1.90
2022-07-27T20:35:04.769Z,2.10
2022-07-27T20:37:06.452Z,2.10
2022-07-27T20:39:08.172Z,2.30
2022-07-27T20:41:13.577Z,2.20
2022-07-27T20:43:15.244Z,1.93
2022-07-27T20:45:17.003Z,1.80
2022-07-27T20:47:18.688Z,1.80
2022-07-27T20:49:20.446Z,1.63
2022-07-27T20:51:22.231Z,2.00
2022-07-27T20:53:24.077Z,1.73
2022-07-27T20:55:25.795Z,1.50
2022-07-27T20:57:28.808Z,1.87
2022-07-27T20:59:30.558Z,1.83
2022-07-27T21:01:32.472Z,1.17
2022-07-27T21:03:34.217Z,1.83
2022-07-27T21:05:35.847Z,1.80
2022-07-27T21:07:37.453Z,1.60
2022-07-27T21:09:40.212Z,1.57
2022-07-27T21:11:42.037Z,1.60
2022-07-27T21:13:45.003Z,1.93
2022-07-27T21:15:46.683Z,1.70
2022-07-27T21:17:48.318Z,1.70
2022-07-27T21:19:49.947Z,1.60
2022-07-27T21:21:51.555Z,1.47
2022-07-27T21:23:53.247Z,1.60
2022-07-27T21:25:54.881Z,1.90
2022-07-27T21:27:58.705Z,1.30
2022-07-27T21:30:04.689Z,1.70
2022-07-27T21:32:06.643Z,1.50
2022-07-27T21:34:08.935Z,1.70
2022-07-27T21:36:10.555Z,1.63
2022-07-27T21:38:12.434Z,1.63
2022-07-27T21:40:14.483Z,1.50
2022-07-27T21:42:16.086Z,1.80
2022-07-27T21:44:18.051Z,1.43
2022-07-27T21:46:21.295Z,1.50
2022-07-27T21:48:22.900Z,1.63
2022-07-27T21:50:24.545Z,1.60
2022-07-27T21:52:26.199Z,1.63
2022-07-27T21:54:27.762Z,1.33
2022-07-27T21:56:29.521Z,1.57
2022-07-27T21:58:31.050Z,1.40
2022-07-27T22:00:32.761Z,1.30
2022-07-27T22:02:36.061Z,1.33
2022-07-27T22:04:38.036Z,1.57
2022-07-27T22:06:40.065Z,1.77
2022-07-27T22:08:41.712Z,1.87
2022-07-27T22:10:43.289Z,1.43
2022-07-27T22:12:44.896Z,1.30
2022-07-27T22:14:46.495Z,1.50
2022-07-27T22:16:54.396Z,1.47
2022-07-27T22:18:57.385Z,1.30
2022-07-27T22:20:59.017Z,1.70
2022-07-27T22:23:00.557Z,1.63
2022-07-27T22:25:02.327Z,1.70
2022-07-27T22:27:04.060Z,1.60
2022-07-27T22:29:08.417Z,1.40
2022-07-27T22:31:21.436Z,1.63
2022-07-27T22:33:24.596Z,1.33
2022-07-27T22:35:27.735Z,1.40
2022-07-27T22:37:29.505Z,1.50
2022-07-27T22:39:31.183Z,1.60
2022-07-27T22:41:32.750Z,1.20
2022-07-27T22:43:34.360Z,1.60
2022-07-27T22:45:35.938Z,1.60
2022-07-27T22:47:37.585Z,1.20
2022-07-27T22:49:39.175Z,1.33
2022-07-27T22:51:49.428Z,1.47
2022-07-27T22:53:54.328Z,1.40
2022-07-27T22:55:55.920Z,1.63
2022-07-27T22:57:57.628Z,1.70
2022-07-27T22:59:59.264Z,1.20
2022-07-27T23:02:03.745Z,1.70
2022-07-27T23:04:05.745Z,1.50
2022-07-27T23:06:07.316Z,1.60
2022-07-27T23:08:10.227Z,1.30
2022-07-27T23:10:12.041Z,1.70
2022-07-27T23:12:13.643Z,1.60
2022-07-27T23:14:17.740Z,1.60
2022-07-27T23:16:19.718Z,1.43
2022-07-27T23:18:21.458Z,1.40
2022-07-27T23:20:23.107Z,1.70
2022-07-27T23:22:24.732Z,1.47
2022-07-27T23:24:29.255Z,1.90
2022-07-27T23:26:31.207Z,1.40
2022-07-27T23:28:33.326Z,1.77
2022-07-27T23:30:34.881Z,1.30
2022-07-27T23:32:38.367Z,1.23
2022-07-27T23:34:39.985Z,1.83
2022-07-27T23:36:42.028Z,1.40
2022-07-27T23:38:44.200Z,1.30
2022-07-27T23:40:47.128Z,1.37
2022-07-27T23:42:48.707Z,1.70
2022-07-27T23:44:50.335Z,1.50
2022-07-27T23:46:53.814Z,1.93
2022-07-27T23:48:55.452Z,1.40
2022-07-27T23:50:57.098Z,2.53
2022-07-27T23:52:58.784Z,1.50
2022-07-27T23:55:00.876Z,1.30
2022-07-27T23:57:04.082Z,1.90
2022-07-27T23:59:05.694Z,1.77
